This is the latest recevied weather packets stored in our database for station/object KF4ZNO-13. If no packets are shown the sender has not sent any weather packets the latest 10 day(s).
| Time | Temp. | Humidity | Pressure | Rain* | Wind** | Luminosity | Snow |
|---|---|---|---|---|---|---|---|
| 1777881019 | 10° C | 85% | 1020.2 hPa | 0 mm | - | - | - |
| 1777878619 | 10.56° C | 84% | 1020.5 hPa | 0 mm | - | - | - |
| 1777873818 | 12.78° C | 73% | 1021 hPa | 0 mm | - | - | - |
| 1777872018 | 12.22° C | 78% | 1021 hPa | 0 mm | - | - | - |
| 1777869619 | 12.22° C | 77% | 1021 hPa | 0 mm | - | - | - |
| 1777861820 | 14.44° C | 68% | 1020.5 hPa | 0 mm | - | - | - |
| 1777858819 | 15.56° C | 66% | 1020.1 hPa | 0 mm | - | - | - |
| 1777857620 | 16.11° C | 64% | 1019.7 hPa | 0 mm | - | - | - |
| 1777855820 | 17.22° C | 60% | 1019.5 hPa | 0 mm | - | - | - |
| 1777853420 | 20° C | 47% | 1019.2 hPa | 0 mm | - | - | - |
| 1777851019 | 21.11° C | 45% | 1019.1 hPa | 0 mm | - | - | - |
| 1777850420 | 21.67° C | 47% | 1019.1 hPa | 0 mm | - | - | - |
| 1777849820 | 21.67° C | 48% | 1019 hPa | 0 mm | - | - | - |
| 1777848619 | 22.78° C | 40% | 1018.8 hPa | 0 mm | - | - | - |
| 1777848020 | 22.78° C | 43% | 1018.7 hPa | 0 mm | - | - | - |
| 1777846820 | 23.33° C | 42% | 1018.9 hPa | 0 mm | - | - | - |
| 1777845619 | 24.44° C | 38% | 1019 hPa | 0 mm | - | - | - |
| 1777837820 | 25° C | 30% | 1020.4 hPa | 0 mm | - | - | - |
| 1777835440 | 24.44° C | 32% | 1021.3 hPa | 0 mm | - | - | - |
| 1777831820 | 23.89° C | 35% | 1021.7 hPa | 0 mm | - | - | - |
| 1777830039 | 22.78° C | 33% | 1021.9 hPa | 0 mm | - | - | - |
| 1777825219 | 22.22° C | 41% | 1022.9 hPa | 0 mm | - | - | - |
| 1777824019 | 21.67° C | 40% | 1023.4 hPa | 0 mm | - | - | - |
| 1777822819 | 21.11° C | 38% | 1023.6 hPa | 0 mm | - | - | - |
| 1777816820 | 16.67° C | 69% | 1022.7 hPa | 0 mm | - | - | - |
* Rain latest hour (hover to see other rain measurements)
** Current wind speed in m/s (hover to see current wind gust speed)